createdAt,value
2023-05-05T05:00:44.456Z,13.18
2023-05-05T05:03:11.949Z,13.21
2023-05-05T05:05:38.928Z,13.24
2023-05-05T05:08:06.670Z,13.32
2023-05-05T05:10:33.713Z,13.42
2023-05-05T05:13:02.269Z,13.54
2023-05-05T05:15:29.032Z,13.64
2023-05-05T05:17:56.305Z,13.75
2023-05-05T05:20:24.397Z,13.83
2023-05-05T05:22:51.917Z,13.89
2023-05-05T05:25:20.623Z,13.95
2023-05-05T05:28:01.974Z,13.96
2023-05-05T05:30:37.050Z,13.97
2023-05-05T05:33:06.565Z,13.99
2023-05-05T05:35:33.182Z,14.02
2023-05-05T05:38:00.904Z,14.03
2023-05-05T05:40:27.508Z,14.08
2023-05-05T05:42:55.676Z,14.09
2023-05-05T05:45:27.085Z,14.10
2023-05-05T05:47:54.402Z,14.03
2023-05-05T05:50:21.625Z,14.06
2023-05-05T05:52:48.942Z,14.01
2023-05-05T05:55:15.724Z,14.03
2023-05-05T05:57:43.255Z,14.03
2023-05-05T06:00:11.634Z,14.06
2023-05-05T06:02:38.885Z,14.11
2023-05-05T06:05:09.613Z,14.08
2023-05-05T06:07:37.343Z,14.11
2023-05-05T06:10:25.159Z,14.16
2023-05-05T06:12:54.189Z,14.21
2023-05-05T06:15:20.978Z,14.28
2023-05-05T06:20:29.478Z,14.57
2023-05-05T06:22:56.741Z,14.77
2023-05-05T06:25:24.146Z,14.99
2023-05-05T06:27:52.255Z,15.09
2023-05-05T06:30:18.795Z,15.07
2023-05-05T06:32:46.119Z,15.04
2023-05-05T06:35:12.675Z,15.05
2023-05-05T06:37:40.135Z,14.99
2023-05-05T06:40:07.977Z,14.87
2023-05-05T06:42:36.252Z,14.79
2023-05-05T06:45:07.275Z,14.78
2023-05-05T06:47:34.855Z,14.74
2023-05-05T06:50:01.564Z,14.68
2023-05-05T06:52:28.610Z,14.74
2023-05-05T06:54:55.087Z,14.79
2023-05-05T06:57:22.289Z,14.79
2023-05-05T06:59:48.860Z,14.86
2023-05-05T07:02:16.115Z,14.90
2023-05-05T07:04:43.991Z,14.92
2023-05-05T07:07:11.196Z,14.96
2023-05-05T07:09:37.774Z,15.03
2023-05-05T07:12:05.122Z,15.07
2023-05-05T07:14:31.697Z,15.12
2023-05-05T07:16:58.983Z,15.23
2023-05-05T07:19:25.628Z,15.38
2023-05-05T07:21:52.815Z,15.54
2023-05-05T07:24:19.437Z,15.68
2023-05-05T07:26:46.835Z,15.76
2023-05-05T07:29:13.510Z,15.81
2023-05-05T07:31:40.892Z,15.73
2023-05-05T07:34:07.571Z,15.78
2023-05-05T07:36:34.852Z,15.84
2023-05-05T07:39:01.661Z,15.95
2023-05-05T07:41:28.937Z,16.11
2023-05-05T07:43:55.562Z,16.17
2023-05-05T07:46:22.719Z,16.20
2023-05-05T07:48:49.329Z,16.19
2023-05-05T07:51:16.554Z,16.26
2023-05-05T07:53:43.280Z,16.30
2023-05-05T07:56:10.820Z,16.42
2023-05-05T07:58:37.364Z,16.46
2023-05-05T08:01:06.777Z,16.55
2023-05-05T08:03:33.534Z,16.68
2023-05-05T08:06:08.869Z,16.78
2023-05-05T08:08:35.678Z,16.85
2023-05-05T08:11:03.241Z,16.91
2023-05-05T08:13:32.602Z,16.93
2023-05-05T08:15:59.948Z,16.97
2023-05-05T08:18:26.993Z,16.92
2023-05-05T08:20:54.900Z,16.95
2023-05-05T08:23:21.800Z,17.01
2023-05-05T08:25:50.159Z,17.09
2023-05-05T08:28:16.740Z,17.26
2023-05-05T08:30:44.321Z,17.38
2023-05-05T08:33:11.092Z,17.39
2023-05-05T08:35:38.401Z,17.41
2023-05-05T08:38:05.010Z,17.47
2023-05-05T08:40:38.406Z,17.64
2023-05-05T08:43:05.573Z,17.74
2023-05-05T08:48:35.265Z,18.10
2023-05-05T08:51:05.665Z,18.16
2023-05-05T08:53:47.881Z,18.35
2023-05-05T08:56:18.413Z,18.53
2023-05-05T08:58:46.513Z,18.88
2023-05-05T09:01:14.686Z,19.20
2023-05-05T09:03:41.397Z,19.42
2023-05-05T09:06:09.891Z,19.77
2023-05-05T09:08:40.105Z,19.89
2023-05-05T09:11:07.402Z,20.09
2023-05-05T09:13:34.127Z,20.24
2023-05-05T09:16:01.448Z,20.38
2023-05-05T09:18:44.612Z,20.60
2023-05-05T09:21:28.026Z,20.69
2023-05-05T09:24:11.734Z,20.55
2023-05-05T09:26:42.290Z,20.62
2023-05-05T09:29:09.412Z,20.74
2023-05-05T09:31:37.920Z,20.84
2023-05-05T09:34:15.919Z,21.04
2023-05-05T09:36:49.630Z,21.23
2023-05-05T09:39:20.005Z,21.49
2023-05-05T09:41:47.556Z,21.56
2023-05-05T09:44:16.093Z,21.68
2023-05-05T09:46:53.459Z,21.82
2023-05-05T09:49:26.808Z,22.03
2023-05-05T09:51:55.626Z,22.12
2023-05-05T09:54:27.331Z,22.36
2023-05-05T09:56:55.738Z,22.47
2023-05-05T09:59:23.120Z,22.61
2023-05-05T10:01:51.604Z,22.66
2023-05-05T10:06:52.441Z,22.75
2023-05-05T10:09:19.130Z,22.78
2023-05-05T10:11:47.873Z,23.11
2023-05-05T10:14:15.900Z,23.25
2023-05-05T10:16:51.083Z,23.50
2023-05-05T10:19:22.970Z,23.59
2023-05-05T10:21:59.817Z,23.81
2023-05-05T10:24:35.836Z,24.04
2023-05-05T10:27:05.063Z,24.21
2023-05-05T10:30:00.237Z,24.32
2023-05-05T10:32:56.394Z,24.43
2023-05-05T10:35:24.858Z,24.54
2023-05-05T10:37:52.670Z,24.77
2023-05-05T10:40:22.410Z,24.95
2023-05-05T10:42:50.933Z,25.15
2023-05-05T10:45:18.264Z,25.36
2023-05-05T10:47:45.019Z,25.44
2023-05-05T10:50:21.863Z,24.95
2023-05-05T10:53:11.159Z,24.92
2023-05-05T10:55:48.641Z,25.22
2023-05-05T10:58:46.894Z,25.12
2023-05-05T11:01:33.146Z,25.17
2023-05-05T11:04:18.758Z,25.35
2023-05-05T11:07:14.773Z,25.30
2023-05-05T11:10:15.869Z,25.37
2023-05-05T11:12:52.042Z,25.23
2023-05-05T11:15:29.236Z,25.26
2023-05-05T11:18:40.112Z,25.18
2023-05-05T11:21:20.657Z,24.97
2023-05-05T11:23:56.770Z,24.88
2023-05-05T11:26:50.351Z,24.71
2023-05-05T11:29:17.927Z,25.10
2023-05-05T11:31:47.990Z,25.42
2023-05-05T11:34:29.375Z,25.42
2023-05-05T11:36:59.063Z,25.58
2023-05-05T11:39:33.536Z,25.70
2023-05-05T11:42:28.752Z,25.85
2023-05-05T11:44:56.356Z,25.73
2023-05-05T11:47:23.115Z,25.52
2023-05-05T11:49:50.825Z,25.47
2023-05-05T11:55:05.757Z,25.35
2023-05-05T11:57:32.371Z,25.82
2023-05-05T12:00:02.537Z,26.15
2023-05-05T12:02:31.831Z,26.40
2023-05-05T12:05:00.198Z,26.69
2023-05-05T12:07:33.395Z,26.95
2023-05-05T12:10:01.108Z,26.93
2023-05-05T12:12:38.609Z,26.92
2023-05-05T12:15:06.969Z,26.90
2023-05-05T12:17:44.908Z,27.00
2023-05-05T12:20:13.424Z,27.13
2023-05-05T12:22:40.571Z,27.01
2023-05-05T12:25:09.049Z,27.14
2023-05-05T12:27:35.805Z,27.14
2023-05-05T12:30:14.483Z,27.22
2023-05-05T12:32:41.493Z,26.99
2023-05-05T12:35:10.174Z,27.01
2023-05-05T12:37:37.099Z,27.03
2023-05-05T12:40:06.608Z,26.74
2023-05-05T12:42:38.894Z,26.66
2023-05-05T12:45:08.170Z,26.58
2023-05-05T12:47:36.704Z,26.64
2023-05-05T12:50:03.934Z,26.65
2023-05-05T12:52:46.180Z,26.77
2023-05-05T12:55:13.215Z,26.93
2023-05-05T12:58:00.769Z,26.89
2023-05-05T13:00:29.396Z,26.81
2023-05-05T13:02:56.853Z,26.88
2023-05-05T13:05:34.506Z,26.86
2023-05-05T13:08:01.087Z,26.59
2023-05-05T13:10:31.220Z,26.28
2023-05-05T13:12:58.786Z,26.27
2023-05-05T13:15:26.149Z,26.18
2023-05-05T13:18:03.102Z,26.26
2023-05-05T13:20:29.755Z,26.18
2023-05-05T13:22:57.589Z,26.04
2023-05-05T13:25:24.251Z,26.02
2023-05-05T13:27:51.587Z,26.15
2023-05-05T13:30:18.159Z,26.12
2023-05-05T13:32:45.480Z,26.06
2023-05-05T13:35:14.689Z,26.02
2023-05-05T13:37:44.594Z,26.02
2023-05-05T13:40:13.266Z,25.89
2023-05-05T13:42:40.612Z,25.81
2023-05-05T13:45:07.902Z,25.78
2023-05-05T13:47:35.015Z,25.43
2023-05-05T13:50:01.990Z,25.31
2023-05-05T13:52:31.623Z,25.24
2023-05-05T13:54:59.728Z,25.10
2023-05-05T13:57:27.296Z,24.80
2023-05-05T13:59:53.990Z,24.71
2023-05-05T14:02:21.313Z,24.56
2023-05-05T14:04:47.897Z,24.23
2023-05-05T14:07:15.147Z,24.21
2023-05-05T14:09:41.742Z,24.12
2023-05-05T14:12:09.007Z,24.03
2023-05-05T14:14:36.041Z,23.91
2023-05-05T14:17:03.388Z,23.86
2023-05-05T14:19:30.056Z,23.76
2023-05-05T14:21:57.713Z,23.62
2023-05-05T14:24:24.394Z,23.49
2023-05-05T14:26:51.614Z,23.35
2023-05-05T14:29:18.224Z,23.18
2023-05-05T14:31:45.560Z,23.05
2023-05-05T14:34:12.184Z,22.91
2023-05-05T14:36:39.418Z,22.52
2023-05-05T14:39:05.983Z,21.35
2023-05-05T14:41:33.195Z,20.21
2023-05-05T14:43:59.754Z,18.81
2023-05-05T14:46:27.686Z,18.03
2023-05-05T14:48:54.323Z,17.94
2023-05-05T14:51:21.548Z,17.83
2023-05-05T14:53:48.210Z,17.69
2023-05-05T14:56:17.445Z,17.43
2023-05-05T14:58:44.044Z,17.29
2023-05-05T15:01:11.351Z,17.22
2023-05-05T15:03:38.260Z,17.19
2023-05-05T15:06:05.828Z,17.21
2023-05-05T15:08:32.432Z,17.29
2023-05-05T15:10:59.688Z,17.31
2023-05-05T15:13:26.787Z,17.34
2023-05-05T15:15:53.767Z,17.24
2023-05-05T15:18:20.490Z,17.25
2023-05-05T15:20:47.723Z,17.23
2023-05-05T15:23:14.565Z,17.25
2023-05-05T15:25:42.100Z,17.23
2023-05-05T15:28:08.738Z,17.12
2023-05-05T15:30:36.054Z,17.06
2023-05-05T15:33:02.701Z,17.08
2023-05-05T15:35:29.944Z,17.17
2023-05-05T15:37:56.568Z,17.22
2023-05-05T15:40:23.721Z,17.27
2023-05-05T15:42:51.122Z,17.33
2023-05-05T15:45:18.108Z,17.45
2023-05-05T15:47:45.858Z,17.52
2023-05-05T15:50:12.897Z,17.57
2023-05-05T15:52:40.253Z,17.62
2023-05-05T15:55:07.861Z,17.60
2023-05-05T15:57:35.400Z,17.53
2023-05-05T16:00:02.371Z,17.47
2023-05-05T16:02:34.446Z,17.48
2023-05-05T16:05:01.493Z,17.45
2023-05-05T16:07:28.075Z,17.41
2023-05-05T16:09:55.057Z,17.31
2023-05-05T16:12:22.406Z,17.25
2023-05-05T16:14:49.111Z,17.15
2023-05-05T16:17:16.035Z,17.14
2023-05-05T16:19:42.613Z,17.14
2023-05-05T16:22:09.828Z,17.10
2023-05-05T16:24:36.514Z,17.07
2023-05-05T16:27:04.517Z,16.97
2023-05-05T16:29:31.184Z,16.86
2023-05-05T16:31:58.536Z,16.84
2023-05-05T16:34:25.197Z,16.84
2023-05-05T16:36:53.666Z,16.79
2023-05-05T16:39:20.290Z,16.74
2023-05-05T16:41:47.519Z,16.65
2023-05-05T16:44:14.431Z,16.56
2023-05-05T16:46:41.460Z,16.48
2023-05-05T16:49:08.433Z,16.46
2023-05-05T16:51:35.382Z,16.46
2023-05-05T16:54:02.019Z,16.42
2023-05-05T16:56:29.396Z,16.40
2023-05-05T16:58:56.118Z,16.40
2023-05-05T17:01:23.429Z,16.34
2023-05-05T17:03:50.520Z,16.32
2023-05-05T17:06:17.873Z,16.26
2023-05-05T17:08:44.548Z,16.20
2023-05-05T17:11:14.490Z,16.17
2023-05-05T17:13:40.936Z,16.12
2023-05-05T17:16:08.300Z,16.08
2023-05-05T17:18:34.954Z,15.81
2023-05-05T17:21:02.194Z,15.67
2023-05-05T17:23:28.826Z,15.53
2023-05-05T17:25:56.178Z,15.42
2023-05-05T17:28:22.876Z,15.35
2023-05-05T17:30:49.831Z,15.37
2023-05-05T17:33:20.745Z,15.30
2023-05-05T17:35:48.499Z,15.19
2023-05-05T17:38:15.467Z,15.11
2023-05-05T17:40:42.705Z,15.10
2023-05-05T17:43:09.358Z,15.07
2023-05-05T17:45:36.684Z,15.03
2023-05-05T17:48:03.508Z,15.00
2023-05-05T17:50:30.828Z,14.98
2023-05-05T17:52:57.433Z,14.94
2023-05-05T17:55:24.685Z,14.83
2023-05-05T17:57:55.772Z,14.81
2023-05-05T18:00:23.268Z,14.82
2023-05-05T18:02:49.825Z,14.79
2023-05-05T18:05:16.877Z,14.78
2023-05-05T18:07:43.801Z,14.80
2023-05-05T18:10:11.064Z,14.81
2023-05-05T18:12:37.853Z,14.85
2023-05-05T18:15:05.645Z,14.84
2023-05-05T18:17:32.282Z,14.83
2023-05-05T18:19:59.461Z,14.79
2023-05-05T18:22:26.267Z,14.77
2023-05-05T18:24:59.166Z,14.75
2023-05-05T18:27:26.915Z,14.71
2023-05-05T18:29:54.336Z,14.67
2023-05-05T18:32:21.666Z,14.65
2023-05-05T18:34:48.957Z,14.64
2023-05-05T18:37:15.606Z,14.59
2023-05-05T18:39:44.065Z,14.53
2023-05-05T18:42:12.685Z,14.50
2023-05-05T18:44:40.037Z,14.44
2023-05-05T18:47:06.849Z,14.40
2023-05-05T18:49:34.203Z,14.36
2023-05-05T18:52:00.840Z,14.35
2023-05-05T18:54:28.087Z,14.34
2023-05-05T18:56:54.750Z,14.29
2023-05-05T18:59:22.516Z,14.28
2023-05-05T19:01:49.061Z,14.23
2023-05-05T19:04:30.148Z,14.19
2023-05-05T19:06:59.135Z,14.13
2023-05-05T19:09:26.606Z,14.14
2023-05-05T19:11:53.260Z,14.17
2023-05-05T19:14:20.551Z,14.13
2023-05-05T19:16:47.213Z,14.06
2023-05-05T19:19:14.714Z,14.06
2023-05-05T19:21:41.327Z,14.05
2023-05-05T19:24:09.596Z,14.02
2023-05-05T19:26:36.343Z,14.01
2023-05-05T19:29:03.702Z,14.02
2023-05-05T19:31:31.225Z,14.01
2023-05-05T19:34:01.505Z,13.98
2023-05-05T19:36:28.908Z,13.90
2023-05-05T19:38:56.287Z,13.86
2023-05-05T19:41:23.151Z,13.86
2023-05-05T19:43:50.491Z,13.87
2023-05-05T19:46:17.242Z,13.87
2023-05-05T19:48:44.649Z,13.88
2023-05-05T19:51:11.333Z,13.91
2023-05-05T19:53:40.377Z,13.89
2023-05-05T19:56:07.376Z,13.88
2023-05-05T19:58:59.492Z,13.88
2023-05-05T20:01:27.675Z,13.85
2023-05-05T20:03:56.620Z,13.83
2023-05-05T20:06:23.653Z,13.78
2023-05-05T20:08:51.122Z,13.73
2023-05-05T20:11:18.192Z,13.69
2023-05-05T20:13:45.557Z,13.69
2023-05-05T20:16:12.860Z,13.64
2023-05-05T20:18:40.533Z,13.57
2023-05-05T20:21:07.118Z,13.52
2023-05-05T20:23:34.467Z,13.50
2023-05-05T20:26:01.632Z,13.45
2023-05-05T20:28:28.981Z,13.39
